createdAt,value
2019-05-07T00:01:55.157Z,94422.64
2019-05-07T00:04:26.206Z,94428.37
2019-05-07T00:06:57.751Z,94430.51
2019-05-07T00:09:29.306Z,94430.33
2019-05-07T00:12:04.703Z,94417.56
2019-05-07T00:14:34.576Z,94419.52
2019-05-07T00:17:07.187Z,94416.56
2019-05-07T00:19:38.924Z,94424.24
2019-05-07T00:22:12.396Z,94427.61
2019-05-07T00:24:43.188Z,94430.87
2019-05-07T00:27:14.456Z,94432.55
2019-05-07T00:29:45.765Z,94424.76
2019-05-07T00:32:17.428Z,94423.44
2019-05-07T00:34:54.257Z,94425.68
2019-05-07T00:37:35.425Z,94417.61
2019-05-07T00:40:28.943Z,94424.64
2019-05-07T00:43:13.398Z,94431.41
2019-05-07T00:45:52.922Z,94427.97
2019-05-07T00:48:24.471Z,94430.14
2019-05-07T00:51:14.923Z,94429.72
2019-05-07T00:53:46.580Z,94427.30
2019-05-07T00:56:18.257Z,94429.17
2019-05-07T00:58:49.874Z,94436.13
2019-05-07T01:01:22.681Z,94440.50
2019-05-07T01:03:54.558Z,94443.83
2019-05-07T01:06:26.632Z,94435.11
2019-05-07T01:08:59.139Z,94432.34
2019-05-07T01:11:30.773Z,94441.41
2019-05-07T01:14:02.828Z,94439.58
2019-05-07T01:16:34.669Z,94436.50
2019-05-07T01:19:06.483Z,94440.87
2019-05-07T01:21:37.983Z,94436.63
2019-05-07T01:24:09.531Z,94433.64
2019-05-07T01:26:42.568Z,94438.88
2019-05-07T01:29:14.373Z,94438.22
2019-05-07T01:31:54.763Z,94433.49
2019-05-07T01:34:44.924Z,94436.35
2019-05-07T01:37:16.586Z,94438.91
2019-05-07T01:39:47.941Z,94447.38
2019-05-07T01:42:19.372Z,94444.84
2019-05-07T01:44:52.843Z,94444.42
2019-05-07T01:47:24.258Z,94446.14
2019-05-07T01:49:55.925Z,94446.95
2019-05-07T01:52:27.548Z,94445.75
2019-05-07T01:54:59.257Z,94447.92
2019-05-07T01:57:32.587Z,94450.17
2019-05-07T02:00:05.297Z,94459.03
2019-05-07T02:02:58.699Z,94458.36
2019-05-07T02:05:39.190Z,94456.02
2019-05-07T02:08:14.189Z,94456.34
2019-05-07T02:11:04.667Z,94459.48
2019-05-07T02:13:36.272Z,94459.48
2019-05-07T02:16:07.745Z,94450.59
2019-05-07T02:18:39.011Z,94462.73
2019-05-07T02:21:12.730Z,94462.25
2019-05-07T02:23:43.481Z,94460.87
2019-05-07T02:26:14.684Z,94473.44
2019-05-07T02:28:45.966Z,94464.51
2019-05-07T02:31:17.238Z,94477.85
2019-05-07T02:33:49.027Z,94472.85
2019-05-07T02:36:23.581Z,94479.56
2019-05-07T02:39:03.957Z,94479.14
2019-05-07T02:41:37.225Z,94476.25
2019-05-07T02:44:08.595Z,94476.95
2019-05-07T02:47:03.739Z,94473.48
2019-05-07T02:49:56.355Z,94480.44
2019-05-07T02:52:49.448Z,94476.14
2019-05-07T02:55:37.360Z,94483.37
2019-05-07T02:58:08.945Z,94478.19
2019-05-07T03:00:43.091Z,94482.81
2019-05-07T03:03:13.977Z,94487.68
2019-05-07T03:05:46.607Z,94483.40
2019-05-07T03:08:18.003Z,94496.17
2019-05-07T03:10:52.496Z,94488.94
2019-05-07T03:13:23.933Z,94486.14
2019-05-07T03:15:55.582Z,94492.36
2019-05-07T03:18:27.135Z,94495.13
2019-05-07T03:21:18.307Z,94497.31
2019-05-07T03:24:14.026Z,94497.47
2019-05-07T03:26:46.109Z,94498.50
2019-05-07T03:29:23.644Z,94494.05
2019-05-07T03:32:15.785Z,94494.95
2019-05-07T03:34:58.202Z,94497.79
2019-05-07T03:37:35.757Z,94507.10
2019-05-07T03:40:04.219Z,94505.08
2019-05-07T03:42:36.223Z,94510.80
2019-05-07T03:45:17.587Z,94509.92
2019-05-07T03:47:54.312Z,94516.09
2019-05-07T03:50:25.763Z,94515.89
2019-05-07T03:52:57.172Z,94519.20
2019-05-07T03:55:28.942Z,94526.17
2019-05-07T03:58:02.911Z,94526.83
2019-05-07T04:00:33.580Z,94527.86
2019-05-07T04:03:05.201Z,94520.75
2019-05-07T04:05:36.871Z,94528.28
2019-05-07T04:08:08.577Z,94529.09
2019-05-07T04:10:39.780Z,94528.45
2019-05-07T04:13:13.584Z,94527.64
2019-05-07T04:15:45.419Z,94529.97
2019-05-07T04:18:17.422Z,94530.39
2019-05-07T04:20:49.155Z,94539.50
2019-05-07T04:23:23.300Z,94540.62
2019-05-07T04:26:19.058Z,94543.72
2019-05-07T04:29:04.751Z,94540.14
2019-05-07T04:31:38.460Z,94550.98
2019-05-07T04:34:15.658Z,94541.59
2019-05-07T04:36:49.018Z,94549.78
2019-05-07T04:39:23.193Z,94551.08
2019-05-07T04:41:53.784Z,94544.39
2019-05-07T04:44:25.399Z,94544.29
2019-05-07T04:46:57.018Z,94543.06
2019-05-07T04:49:28.472Z,94545.05
2019-05-07T04:52:11.338Z,94545.87
2019-05-07T04:54:43.687Z,94560.21
2019-05-07T04:57:26.875Z,94557.55
2019-05-07T04:59:58.950Z,94565.81
2019-05-07T05:02:46.983Z,94561.93
2019-05-07T05:05:19.707Z,94553.94
2019-05-07T05:07:53.359Z,94567.19
2019-05-07T05:10:24.406Z,94559.06
2019-05-07T05:12:56.032Z,94559.40
2019-05-07T05:15:27.380Z,94565.12
2019-05-07T05:17:58.954Z,94566.77
2019-05-07T05:20:45.454Z,94571.98
2019-05-07T05:23:34.497Z,94578.33
2019-05-07T05:26:06.345Z,94577.46
2019-05-07T05:28:37.581Z,94568.81
2019-05-07T05:31:08.784Z,94574.98
2019-05-07T05:33:41.924Z,94570.21
2019-05-07T05:36:13.775Z,94590.87
2019-05-07T05:38:45.464Z,94579.95
2019-05-07T05:41:17.087Z,94588.17
2019-05-07T05:44:11.877Z,94586.47
2019-05-07T05:46:43.453Z,94586.08
2019-05-07T05:49:14.721Z,94592.13
2019-05-07T05:52:04.850Z,94594.00
2019-05-07T05:54:39.943Z,94594.39
2019-05-07T05:57:32.693Z,94601.53
2019-05-07T06:00:25.940Z,94596.02
2019-05-07T06:03:28.312Z,94603.86
2019-05-07T06:06:16.457Z,94605.95
2019-05-07T06:09:01.792Z,94608.14
2019-05-07T06:11:53.457Z,94613.48
2019-05-07T06:14:46.838Z,94618.58
2019-05-07T06:17:52.637Z,94615.20
2019-05-07T06:20:42.861Z,94617.48
2019-05-07T06:23:35.357Z,94622.41
2019-05-07T06:26:06.967Z,94613.92
2019-05-07T06:28:38.229Z,94612.97
2019-05-07T06:31:09.796Z,94609.99
2019-05-07T06:33:42.952Z,94615.43
2019-05-07T06:36:14.867Z,94625.98
2019-05-07T06:38:55.143Z,94623.84
2019-05-07T06:41:43.842Z,94617.88
2019-05-07T06:44:19.505Z,94619.36
2019-05-07T06:46:52.608Z,94616.84
2019-05-07T06:49:24.036Z,94624.84
2019-05-07T06:51:55.216Z,94627.37
2019-05-07T06:54:26.500Z,94620.69
2019-05-07T06:56:57.716Z,94615.31
2019-05-07T06:59:37.548Z,94623.23
2019-05-07T07:02:36.936Z,94619.44
2019-05-07T07:05:17.373Z,94627.04
2019-05-07T07:07:53.557Z,94621.16
2019-05-07T07:10:51.951Z,94627.98
2019-05-07T07:13:23.978Z,94623.27
2019-05-07T07:15:55.561Z,94618.80
2019-05-07T07:18:27.005Z,94627.28
2019-05-07T07:20:58.353Z,94627.69
2019-05-07T07:23:32.158Z,94632.69
2019-05-07T07:26:03.405Z,94636.58
2019-05-07T07:28:34.915Z,94645.21
2019-05-07T07:31:31.856Z,94638.33
2019-05-07T07:34:05.485Z,94641.08
2019-05-07T07:36:43.160Z,94649.48
2019-05-07T07:39:14.372Z,94646.11
2019-05-07T07:41:52.189Z,94642.84
2019-05-07T07:44:23.393Z,94644.91
2019-05-07T07:46:54.716Z,94642.83
2019-05-07T07:49:26.223Z,94648.05
2019-05-07T07:51:57.989Z,94651.45
2019-05-07T07:54:29.227Z,94653.41
2019-05-07T07:57:18.245Z,94647.62
2019-05-07T07:59:58.255Z,94655.77
2019-05-07T08:02:52.916Z,94658.72
2019-05-07T08:05:24.374Z,94659.79
2019-05-07T08:07:55.772Z,94661.84
2019-05-07T08:10:27.170Z,94663.42
2019-05-07T08:12:58.366Z,94668.34
2019-05-07T08:15:29.934Z,94666.95
2019-05-07T08:18:02.887Z,94679.48
2019-05-07T08:20:34.685Z,94669.58
2019-05-07T08:23:06.556Z,94671.50
2019-05-07T08:25:52.489Z,94677.67
2019-05-07T08:28:23.537Z,94678.68
2019-05-07T08:31:02.992Z,94679.09
2019-05-07T08:33:38.796Z,94674.00
2019-05-07T08:36:14.678Z,94680.89
2019-05-07T08:38:53.038Z,94684.89
2019-05-07T08:41:26.411Z,94681.75
2019-05-07T08:44:11.754Z,94672.02
2019-05-07T08:46:53.739Z,94684.98
2019-05-07T08:49:36.197Z,94680.66
2019-05-07T08:52:03.440Z,94684.02
2019-05-07T08:54:35.468Z,94687.64
2019-05-07T08:57:07.089Z,94686.92
2019-05-07T08:59:42.454Z,94688.68
2019-05-07T09:02:14.752Z,94692.83
2019-05-07T09:04:46.241Z,94692.04
2019-05-07T09:07:17.722Z,94695.19
2019-05-07T09:09:49.163Z,94690.79
2019-05-07T09:12:22.740Z,94690.45
2019-05-07T09:14:53.794Z,94697.92
2019-05-07T09:17:25.098Z,94697.08
2019-05-07T09:19:56.561Z,94701.61
2019-05-07T09:22:27.992Z,94704.95
2019-05-07T09:24:59.425Z,94707.39
2019-05-07T09:27:49.486Z,94710.42
2019-05-07T09:30:38.704Z,94711.12
2019-05-07T09:33:28.843Z,94717.37
2019-05-07T09:36:02.159Z,94722.70
2019-05-07T09:38:33.214Z,94723.02
2019-05-07T09:41:04.630Z,94721.23
2019-05-07T09:43:36.316Z,94724.13
2019-05-07T09:46:08.024Z,94723.95
2019-05-07T09:48:39.364Z,94729.77
2019-05-07T09:51:12.270Z,94732.58
2019-05-07T09:53:43.788Z,94742.60
2019-05-07T09:56:15.349Z,94742.93
2019-05-07T09:58:46.981Z,94725.88
2019-05-07T10:01:18.680Z,94736.34
2019-05-07T10:03:51.857Z,94740.81
2019-05-07T10:06:23.430Z,94728.23
2019-05-07T10:08:55.079Z,94732.36
2019-05-07T10:11:37.535Z,94737.11
2019-05-07T10:14:12.436Z,94743.75
2019-05-07T10:16:52.313Z,94739.46
2019-05-07T10:19:23.692Z,94743.78
2019-05-07T10:24:41.883Z,94734.98
2019-05-07T10:27:13.737Z,94734.66
2019-05-07T10:29:52.989Z,94740.14
2019-05-07T10:32:24.637Z,94739.45
2019-05-07T10:34:56.498Z,94748.37
2019-05-07T10:37:28.080Z,94750.91
2019-05-07T10:40:05.014Z,94750.54
2019-05-07T10:42:36.752Z,94750.05
2019-05-07T10:45:45.218Z,94750.30
2019-05-07T10:48:26.025Z,94749.15
2019-05-07T10:50:58.330Z,94755.52
2019-05-07T10:53:31.884Z,94753.50
2019-05-07T10:56:02.931Z,94755.34
2019-05-07T10:58:34.344Z,94769.06
2019-05-07T11:01:07.501Z,94769.78
2019-05-07T11:03:39.409Z,94776.70
2019-05-07T11:06:11.961Z,94772.58
2019-05-07T11:08:43.579Z,94775.59
2019-05-07T11:11:15.097Z,94774.58
2019-05-07T11:13:46.347Z,94781.49
2019-05-07T11:16:22.119Z,94784.81
2019-05-07T11:18:53.720Z,94787.33
2019-05-07T11:21:33.266Z,94789.89
2019-05-07T11:24:04.740Z,94792.38
2019-05-07T11:26:36.095Z,94789.34
2019-05-07T11:29:07.653Z,94803.05
2019-05-07T11:31:39.259Z,94804.20
2019-05-07T11:34:11.966Z,94792.38
2019-05-07T11:36:44.252Z,94796.58
2019-05-07T11:39:15.722Z,94797.61
2019-05-07T11:42:09.008Z,94799.80
2019-05-07T11:44:42.319Z,94800.47
2019-05-07T11:47:25.790Z,94813.17
2019-05-07T11:50:14.907Z,94827.66
2019-05-07T11:52:53.100Z,94831.05
2019-05-07T11:55:24.926Z,94830.98
2019-05-07T11:57:56.679Z,94823.69
2019-05-07T12:00:39.675Z,94836.98
2019-05-07T12:03:11.053Z,94836.17
2019-05-07T12:05:42.537Z,94833.45
2019-05-07T12:08:14.086Z,94838.84
2019-05-07T12:10:45.728Z,94836.66
2019-05-07T12:13:17.165Z,94846.53
2019-05-07T12:15:48.691Z,94843.08
2019-05-07T12:18:22.497Z,94844.21
2019-05-07T12:20:54.158Z,94837.34
2019-05-07T12:23:25.751Z,94836.59
2019-05-07T12:25:57.347Z,94844.65
2019-05-07T12:28:28.995Z,94849.55
2019-05-07T12:31:20.011Z,94849.89
2019-05-07T12:34:02.544Z,94844.67
2019-05-07T12:36:33.994Z,94852.98
2019-05-07T12:39:07.967Z,94847.55
2019-05-07T12:41:41.858Z,94851.41
2019-05-07T12:44:13.952Z,94853.09
2019-05-07T12:46:45.512Z,94857.15
2019-05-07T12:49:17.213Z,94862.39
2019-05-07T12:52:07.643Z,94846.65
2019-05-07T12:54:56.700Z,94866.84
2019-05-07T12:57:28.079Z,94858.39
2019-05-07T13:00:18.555Z,94863.94
2019-05-07T13:03:08.943Z,94859.62
2019-05-07T13:05:41.761Z,94863.52
2019-05-07T13:08:13.607Z,94869.16
2019-05-07T13:10:45.272Z,94871.23
2019-05-07T13:13:17.161Z,94877.60
2019-05-07T13:15:48.557Z,94875.34
2019-05-07T13:18:22.504Z,94876.59
2019-05-07T13:20:53.616Z,94872.00
2019-05-07T13:23:25.332Z,94880.22
2019-05-07T13:25:57.267Z,94880.30
2019-05-07T13:28:28.722Z,94878.02
2019-05-07T13:31:02.329Z,94889.81
2019-05-07T13:33:36.182Z,94889.67
2019-05-07T13:36:07.991Z,94891.77
2019-05-07T13:39:04.817Z,94890.10
2019-05-07T13:41:56.766Z,94888.13
2019-05-07T13:44:53.344Z,94895.28
2019-05-07T13:47:27.006Z,94892.12
2019-05-07T13:49:59.040Z,94896.34
2019-05-07T13:52:32.748Z,94901.52
2019-05-07T13:55:03.695Z,94900.31
2019-05-07T13:57:35.719Z,94905.27
2019-05-07T14:00:12.811Z,94898.02
2019-05-07T14:02:44.435Z,94896.81
2019-05-07T14:05:17.092Z,94898.45
2019-05-07T14:07:48.871Z,94906.11
2019-05-07T14:10:20.460Z,94907.95
2019-05-07T14:12:52.454Z,94904.25
2019-05-07T14:15:24.384Z,94909.09
2019-05-07T14:17:55.780Z,94908.04
2019-05-07T14:20:27.504Z,94917.49
2019-05-07T14:22:59.139Z,94911.34
2019-05-07T14:25:32.440Z,94910.00
2019-05-07T14:28:04.272Z,94912.98
2019-05-07T14:30:35.794Z,94928.52
2019-05-07T14:33:14.306Z,94927.28
2019-05-07T14:35:58.345Z,94929.38
2019-05-07T14:38:42.693Z,94934.19
2019-05-07T14:41:14.603Z,94931.35
2019-05-07T14:44:07.857Z,94934.28
2019-05-07T14:46:45.590Z,94938.94
2019-05-07T14:49:13.047Z,94944.20
2019-05-07T14:51:44.866Z,94936.34
2019-05-07T14:54:18.275Z,94940.85
2019-05-07T14:56:51.686Z,94941.13
2019-05-07T14:59:22.567Z,94942.23
2019-05-07T15:01:54.254Z,94942.28
2019-05-07T15:04:25.927Z,94938.78
2019-05-07T15:06:57.515Z,94948.23
2019-05-07T15:09:29.433Z,94941.03
2019-05-07T15:12:02.197Z,94951.88
2019-05-07T15:14:33.946Z,94948.75
2019-05-07T15:17:43.591Z,94948.55
2019-05-07T15:20:15.511Z,94941.45
2019-05-07T15:22:56.150Z,94947.89
2019-05-07T15:25:28.988Z,94949.19
2019-05-07T15:28:01.821Z,94949.34
2019-05-07T15:30:44.915Z,94951.48
2019-05-07T15:33:16.354Z,94945.22
2019-05-07T15:35:47.974Z,94942.72
2019-05-07T15:38:21.599Z,94944.26
2019-05-07T15:40:52.918Z,94943.05
2019-05-07T15:43:24.671Z,94949.34
2019-05-07T15:45:56.443Z,94951.89
2019-05-07T15:48:28.036Z,94960.95
2019-05-07T15:50:59.783Z,94960.70
2019-05-07T15:53:45.673Z,94961.14
2019-05-07T15:56:18.212Z,94959.08
2019-05-07T15:58:51.619Z,94961.84
2019-05-07T16:01:23.286Z,94967.09
2019-05-07T16:03:55.254Z,94974.44
2019-05-07T16:06:26.916Z,94970.75
2019-05-07T16:09:02.448Z,94973.38
2019-05-07T16:11:35.632Z,94976.05
2019-05-07T16:14:14.484Z,94979.49
2019-05-07T16:16:47.111Z,94985.86
2019-05-07T16:19:23.589Z,94987.22
2019-05-07T16:21:55.828Z,94989.56
2019-05-07T16:24:27.465Z,94988.09
2019-05-07T16:26:59.115Z,94990.62
2019-05-07T16:29:33.659Z,94994.72
2019-05-07T16:32:03.829Z,94989.56
2019-05-07T16:34:35.076Z,94993.03
2019-05-07T16:37:07.591Z,95000.52
2019-05-07T16:39:39.391Z,95004.39
2019-05-07T16:42:10.797Z,95005.27
2019-05-07T16:44:42.055Z,95004.02
2019-05-07T16:47:13.812Z,95007.01
2019-05-07T16:49:45.549Z,95013.27
2019-05-07T16:52:16.986Z,95013.02
2019-05-07T16:54:48.380Z,95013.34
2019-05-07T16:57:44.716Z,95014.45
2019-05-07T17:00:24.523Z,95016.23
2019-05-07T17:02:57.907Z,95005.94
2019-05-07T17:05:29.512Z,95016.84
2019-05-07T17:08:18.057Z,95018.15
2019-05-07T17:10:49.372Z,95020.23
2019-05-07T17:13:20.991Z,95024.63
2019-05-07T17:15:59.414Z,95030.55
2019-05-07T17:18:33.432Z,95029.53
2019-05-07T17:21:04.881Z,95035.68
2019-05-07T17:23:44.034Z,95041.41
2019-05-07T17:26:11.721Z,95041.16
2019-05-07T17:28:43.373Z,95046.09
2019-05-07T17:31:14.714Z,95047.67
2019-05-07T17:33:46.408Z,95049.20
2019-05-07T17:36:18.135Z,95049.25
2019-05-07T17:38:51.855Z,95051.42
2019-05-07T17:41:27.390Z,95056.22
2019-05-07T17:43:59.029Z,95058.41
2019-05-07T17:46:32.441Z,95058.05
2019-05-07T17:49:05.220Z,95059.26
2019-05-07T17:51:44.153Z,95067.44
2019-05-07T17:54:15.970Z,95061.80
2019-05-07T17:56:52.756Z,95066.09
2019-05-07T17:59:23.714Z,95062.53
2019-05-07T18:02:21.883Z,95069.24
2019-05-07T18:04:54.711Z,95066.98
2019-05-07T18:07:28.531Z,95072.77
2019-05-07T18:10:02.253Z,95075.25
2019-05-07T18:12:34.029Z,95073.41
2019-05-07T18:15:05.755Z,95076.20
2019-05-07T18:17:51.491Z,95077.22
2019-05-07T18:20:22.992Z,95082.89
2019-05-07T18:22:54.372Z,95088.14
2019-05-07T18:25:25.642Z,95079.03
2019-05-07T18:27:57.041Z,95085.33
2019-05-07T18:30:28.368Z,95089.50
2019-05-07T18:33:17.403Z,95081.66
2019-05-07T18:35:49.793Z,95086.98
2019-05-07T18:38:22.364Z,95090.17
2019-05-07T18:40:55.484Z,95090.09
2019-05-07T18:43:26.972Z,95089.50
2019-05-07T18:45:58.635Z,95085.95
2019-05-07T18:48:30.285Z,95088.06
2019-05-07T18:51:02.686Z,95088.27
2019-05-07T18:53:34.234Z,95088.06
2019-05-07T18:56:05.816Z,95092.34
2019-05-07T18:58:37.242Z,95089.22
2019-05-07T19:01:11.494Z,95091.30
2019-05-07T19:03:42.867Z,95085.96
2019-05-07T19:06:14.542Z,95098.23
2019-05-07T19:08:47.026Z,95091.73
2019-05-07T19:11:18.734Z,95092.22
2019-05-07T19:13:52.308Z,95098.31
2019-05-07T19:16:23.666Z,95090.57
2019-05-07T19:18:55.123Z,95093.41
2019-05-07T19:21:27.244Z,95097.59
2019-05-07T19:23:58.751Z,95097.34
2019-05-07T19:26:30.433Z,95094.47
2019-05-07T19:29:02.565Z,95094.38
2019-05-07T19:31:34.189Z,95086.64
2019-05-07T19:34:05.633Z,95092.77
2019-05-07T19:36:37.398Z,95098.55
2019-05-07T19:39:09.133Z,95110.17
2019-05-07T19:41:43.015Z,95105.97
2019-05-07T19:44:14.718Z,95106.59
2019-05-07T19:46:46.029Z,95102.39
2019-05-07T19:49:17.468Z,95109.19
2019-05-07T19:51:48.953Z,95107.78
2019-05-07T19:54:20.176Z,95116.87
2019-05-07T19:56:52.031Z,95112.69
2019-05-07T19:59:23.181Z,95113.45
2019-05-07T20:01:58.142Z,95109.87
2019-05-07T20:04:32.107Z,95118.61
2019-05-07T20:07:04.913Z,95119.78
2019-05-07T20:09:37.848Z,95122.28
2019-05-07T20:12:09.494Z,95120.37
2019-05-07T20:14:42.215Z,95115.52
2019-05-07T20:17:13.841Z,95121.27
2019-05-07T20:19:45.199Z,95121.47
2019-05-07T20:22:16.588Z,95121.27
2019-05-07T20:24:48.200Z,95123.82
2019-05-07T20:27:19.866Z,95114.40
2019-05-07T20:29:52.248Z,95114.06
2019-05-07T20:32:24.830Z,95117.19
2019-05-07T20:34:56.352Z,95117.52
2019-05-07T20:37:27.756Z,95114.22
2019-05-07T20:39:59.548Z,95118.11
2019-05-07T20:42:32.442Z,95122.48
2019-05-07T20:45:04.817Z,95127.28
2019-05-07T20:47:36.510Z,95116.38
2019-05-07T20:50:08.841Z,95118.54
2019-05-07T20:52:41.863Z,95124.98
2019-05-07T20:55:31.503Z,95123.63
2019-05-07T20:58:03.034Z,95124.20
2019-05-07T21:00:34.594Z,95123.57
2019-05-07T21:03:23.368Z,95122.72
2019-05-07T21:05:54.339Z,95119.45
2019-05-07T21:08:25.809Z,95120.55
2019-05-07T21:10:57.100Z,95129.54
2019-05-07T21:13:33.975Z,95128.67
2019-05-07T21:16:03.280Z,95119.30
2019-05-07T21:18:35.083Z,95121.62
2019-05-07T21:21:06.521Z,95124.35
2019-05-07T21:23:37.940Z,95122.33
2019-05-07T21:26:09.168Z,95120.12
2019-05-07T21:28:40.383Z,95119.34
2019-05-07T21:31:13.506Z,95113.69
2019-05-07T21:33:44.804Z,95123.34
2019-05-07T21:36:16.309Z,95113.35
2019-05-07T21:38:47.774Z,95111.91
2019-05-07T21:41:19.027Z,95117.52
2019-05-07T21:43:52.611Z,95118.92
2019-05-07T21:46:23.646Z,95117.52
2019-05-07T21:48:55.314Z,95118.15
2019-05-07T21:51:26.650Z,95123.77
2019-05-07T21:54:23.668Z,95119.92
2019-05-07T21:57:06.248Z,95118.83
2019-05-07T21:59:38.124Z,95126.02
2019-05-07T22:02:14.985Z,95123.15
2019-05-07T22:04:46.356Z,95127.12
2019-05-07T22:07:17.809Z,95125.98
2019-05-07T22:09:49.536Z,95125.75
2019-05-07T22:12:22.623Z,95128.77
2019-05-07T22:14:54.319Z,95128.48
2019-05-07T22:17:25.834Z,95133.42
2019-05-07T22:19:57.554Z,95136.08
2019-05-07T22:22:28.782Z,95134.78
2019-05-07T22:25:04.948Z,95130.48
2019-05-07T22:27:35.383Z,95131.60
2019-05-07T22:30:08.913Z,95140.98
2019-05-07T22:32:54.886Z,95133.67
2019-05-07T22:35:30.257Z,95134.73
2019-05-07T22:38:19.498Z,95127.38
2019-05-07T22:40:51.189Z,95130.83
2019-05-07T22:43:22.733Z,95128.58
2019-05-07T22:45:55.281Z,95133.34
2019-05-07T22:48:26.928Z,95137.22
2019-05-07T22:50:58.519Z,95130.48
2019-05-07T22:53:30.027Z,95135.97
2019-05-07T22:56:03.145Z,95130.44
2019-05-07T22:58:38.787Z,95134.77
2019-05-07T23:01:13.085Z,95135.80
2019-05-07T23:03:44.804Z,95130.70
2019-05-07T23:06:16.293Z,95127.67
2019-05-07T23:08:47.918Z,95133.61
2019-05-07T23:11:19.605Z,95131.08
2019-05-07T23:13:52.425Z,95127.38
2019-05-07T23:16:24.462Z,95131.31
2019-05-07T23:18:55.724Z,95127.61
2019-05-07T23:21:27.101Z,95121.13
2019-05-07T23:23:58.576Z,95126.66
2019-05-07T23:26:32.266Z,95128.48
2019-05-07T23:29:02.840Z,95135.73
2019-05-07T23:31:35.478Z,95133.03
2019-05-07T23:34:07.010Z,95127.05
2019-05-07T23:36:38.622Z,95127.05
2019-05-07T23:39:12.533Z,95124.92
2019-05-07T23:41:52.582Z,95125.89
2019-05-07T23:44:24.522Z,95129.30
2019-05-07T23:46:56.058Z,95132.04
2019-05-07T23:49:27.658Z,95126.52
2019-05-07T23:51:59.335Z,95126.95
2019-05-07T23:54:31.934Z,95122.23
2019-05-07T23:57:08.847Z,95126.41
2019-05-07T23:59:36.690Z,95128.05
